地図

経路データ

SID SEASON NUMBER BASIN SUBBASIN NAME ISO_TIME NATURE LAT LON WMO_WIND WMO_PRES WMO_AGENCY TRACK_TYPE DIST2LAND LANDFALL IFLAG USA_AGENCY USA_ATCF_ID USA_LAT USA_LON USA_RECORD USA_STATUS USA_WIND USA_PRES USA_SSHS USA_R34_NE USA_R34_SE USA_R34_SW USA_R34_NW USA_R50_NE USA_R50_SE USA_R50_SW USA_R50_NW USA_R64_NE USA_R64_SE USA_R64_SW USA_R64_NW USA_POCI USA_ROCI USA_RMW USA_EYE TOKYO_LAT TOKYO_LON TOKYO_GRADE TOKYO_WIND TOKYO_PRES TOKYO_R50_DIR TOKYO_R50_LONG TOKYO_R50_SHORT TOKYO_R30_DIR TOKYO_R30_LONG TOKYO_R30_SHORT TOKYO_LAND CMA_LAT CMA_LON CMA_CAT CMA_WIND CMA_PRES HKO_LAT HKO_LON HKO_CAT HKO_WIND HKO_PRES NEWDELHI_LAT NEWDELHI_LON NEWDELHI_GRADE NEWDELHI_WIND NEWDELHI_PRES NEWDELHI_CI NEWDELHI_DP NEWDELHI_POCI REUNION_LAT REUNION_LON REUNION_TYPE REUNION_WIND REUNION_PRES REUNION_TNUM REUNION_CI REUNION_RMW REUNION_R34_NE REUNION_R34_SE REUNION_R34_SW REUNION_R34_NW REUNION_R50_NE REUNION_R50_SE REUNION_R50_SW REUNION_R50_NW REUNION_R64_NE REUNION_R64_SE REUNION_R64_SW REUNION_R64_NW BOM_LAT BOM_LON BOM_TYPE BOM_WIND BOM_PRES BOM_TNUM BOM_CI BOM_RMW BOM_R34_NE BOM_R34_SE BOM_R34_SW BOM_R34_NW BOM_R50_NE BOM_R50_SE BOM_R50_SW BOM_R50_NW BOM_R64_NE BOM_R64_SE BOM_R64_SW BOM_R64_NW BOM_ROCI BOM_POCI BOM_EYE BOM_POS_METHOD BOM_PRES_METHOD NADI_LAT NADI_LON NADI_CAT NADI_WIND NADI_PRES WELLINGTON_LAT WELLINGTON_LON WELLINGTON_WIND WELLINGTON_PRES DS824_LAT DS824_LON DS824_STAGE DS824_WIND DS824_PRES TD9636_LAT TD9636_LON TD9636_STAGE TD9636_WIND TD9636_PRES TD9635_LAT TD9635_LON TD9635_WIND TD9635_PRES TD9635_ROCI NEUMANN_LAT NEUMANN_LON NEUMANN_CLASS NEUMANN_WIND NEUMANN_PRES MLC_LAT MLC_LON MLC_CLASS MLC_WIND MLC_PRES USA_GUST BOM_GUST BOM_GUST_PER REUNION_GUST REUNION_GUST_PER USA_SEAHGT USA_SEARAD_NE USA_SEARAD_SE USA_SEARAD_SW USA_SEARAD_NW STORM_SPEED STORM_DIR
1874215N25306 1874 11 NA NA NOT_NAMED 1874-08-03 00:00:00 TS 24.7000 -53.6000 50 hurdat_atl main 1425 1414 O_____________ hurdat_atl AL021874 24.7000 -53.6000 TS 50 0 17 325
1874215N25306 1874 11 NA NA NOT_NAMED 1874-08-03 03:00:00 TS 25.3830 -54.1209 main 1419 1407 P_____________ AL021874 25.3830 -54.1209 TS 50 0 16 325
1874215N25306 1874 11 NA NA NOT_NAMED 1874-08-03 06:00:00 TS 26.0000 -54.6000 50 hurdat_atl main 1414 1409 O_____________ hurdat_atl AL021874 26.0000 -54.6000 TS 50 0 14 325
1874215N25306 1874 11 NA NA NOT_NAMED 1874-08-03 09:00:00 TS 26.5147 -55.0085 main 1414 1412 P_____________ AL021874 26.5147 -55.0085 TS 50 0 12 324
1874215N25306 1874 11 NA NA NOT_NAMED 1874-08-03 12:00:00 TS 27.0000 -55.4000 50 hurdat_atl main 1419 1419 O_____________ hurdat_atl AL021874 27.0000 -55.4000 TS 50 0 12 324
1874215N25306 1874 11 NA NA NOT_NAMED 1874-08-03 15:00:00 TS 27.5198 -55.8283 main 1427 1420 P_____________ AL021874 27.5198 -55.8283 TS 50 0 14 324
1874215N25306 1874 11 NA NA NOT_NAMED 1874-08-03 18:00:00 TS 28.1000 -56.3000 50 hurdat_atl main 1440 1440 O_____________ hurdat_atl AL021874 28.1000 -56.3000 TS 50 0 16 325
1874215N25306 1874 11 NA NA NOT_NAMED 1874-08-03 21:00:00 TS 28.8002 -56.8569 main 1460 1460 P_____________ AL021874 28.8002 -56.8569 TS 55 0 17 325
1874215N25306 1874 11 NA NA NOT_NAMED 1874-08-04 00:00:00 TS 29.5000 -57.4000 60 hurdat_atl main 1492 1492 O_____________ hurdat_atl AL021874 29.5000 -57.4000 TS 60 0 15 327
1874215N25306 1874 11 NA NA NOT_NAMED 1874-08-04 03:00:00 TS 30.0796 -57.8235 main 1526 1521 P_____________ AL021874 30.0796 -57.8235 TS 60 0 13 328
1874215N25306 1874 11 NA NA NOT_NAMED 1874-08-04 06:00:00 TS 30.6000 -58.2000 60 hurdat_atl main 1553 1500 O_____________ hurdat_atl AL021874 30.6000 -58.2000 TS 60 0 12 327
1874215N25306 1874 11 NA NA NOT_NAMED 1874-08-04 09:00:00 TS 31.1149 -58.6078 main 1500 1435 P_____________ AL021874 31.1149 -58.6078 TS 60 0 12 326
1874215N25306 1874 11 NA NA NOT_NAMED 1874-08-04 12:00:00 TS 31.6000 -59.0000 60 hurdat_atl main 1435 1383 O_____________ hurdat_atl AL021874 31.6000 -59.0000 TS 60 0 11 325
1874215N25306 1874 11 NA NA NOT_NAMED 1874-08-04 15:00:00 TS 32.0499 -59.3655 main 1380 1318 P_____________ AL021874 32.0499 -59.3655 TS 60 0 11 327
1874215N25306 1874 11 NA NA NOT_NAMED 1874-08-04 18:00:00 TS 32.5000 -59.7000 60 hurdat_atl main 1318 1256 O_____________ hurdat_atl AL021874 32.5000 -59.7000 TS 60 0 11 330
1874215N25306 1874 11 NA NA NOT_NAMED 1874-08-04 21:00:00 TS 32.9999 -60.0152 main 1256 1194 P_____________ AL021874 32.9999 -60.0152 TS 65 1 11 333
1874215N25306 1874 11 NA NA NOT_NAMED 1874-08-05 00:00:00 TS 33.5000 -60.3000 70 hurdat_atl main 1194 1146 O_____________ hurdat_atl AL021874 33.5000 -60.3000 HU 70 1 11 334
1874215N25306 1874 11 NA NA NOT_NAMED 1874-08-05 03:00:00 TS 33.9499 -60.5580 main 1143 1084 P_____________ AL021874 33.9499 -60.5580 HU 70 1 10 335
1874215N25306 1874 11 NA NA NOT_NAMED 1874-08-05 06:00:00 TS 34.4000 -60.8000 70 hurdat_atl main 1084 1033 O_____________ hurdat_atl AL021874 34.4000 -60.8000 HU 70 1 10 335
1874215N25306 1874 11 NA NA NOT_NAMED 1874-08-05 09:00:00 TS 34.8625 -61.0652 main 1022 964 P_____________ AL021874 34.8625 -61.0652 HU 70 1 11 338
1874215N25306 1874 11 NA NA NOT_NAMED 1874-08-05 12:00:00 TS 35.4000 -61.3000 70 hurdat_atl main 964 895 O_____________ hurdat_atl AL021874 35.4000 -61.3000 HU 70 1 13 345
1874215N25306 1874 11 NA NA NOT_NAMED 1874-08-05 15:00:00 TS 36.0849 -61.4580 main 884 808 P_____________ AL021874 36.0849 -61.4580 HU 70 1 14 350
1874215N25306 1874 11 NA NA NOT_NAMED 1874-08-05 18:00:00 TS 36.8000 -61.6000 70 hurdat_atl main 808 750 O_____________ hurdat_atl AL021874 36.8000 -61.6000 HU 70 1 13 347
1874215N25306 1874 11 NA NA NOT_NAMED 1874-08-05 21:00:00 TS 37.3701 -61.8221 main 740 671 P_____________ AL021874 37.3701 -61.8221 HU 70 1 12 345
1874215N25306 1874 11 NA NA NOT_NAMED 1874-08-06 00:00:00 TS 38.0000 -62.0000 70 hurdat_atl main 671 590 O_____________ hurdat_atl AL021874 38.0000 -62.0000 HU 70 1 15 353
1874215N25306 1874 11 NA NA NOT_NAMED 1874-08-06 03:00:00 TS 38.8849 -62.0454 main 580 493 P_____________ AL021874 38.8849 -62.0454 HU 70 1 18 1
1874215N25306 1874 11 NA NA NOT_NAMED 1874-08-06 06:00:00 TS 39.8000 -62.0000 70 hurdat_atl main 493 430 O_____________ hurdat_atl AL021874 39.8000 -62.0000 HU 70 1 16 2
1874215N25306 1874 11 NA NA NOT_NAMED 1874-08-06 09:00:00 TS 40.4998 -61.9511 main 430 378 P_____________ AL021874 40.4998 -61.9511 HU 70 1 14 6
1874215N25306 1874 11 NA NA NOT_NAMED 1874-08-06 12:00:00 TS 41.2000 -61.8000 70 hurdat_atl main 378 311 O_____________ hurdat_atl AL021874 41.2000 -61.8000 HU 70 1 16 11
1874215N25306 1874 11 NA NA NOT_NAMED 1874-08-06 15:00:00 TS 42.0922 -61.5247 main 306 229 P_____________ AL021874 42.0922 -61.5247 HU 70 1 19 16
1874215N25306 1874 11 NA NA NOT_NAMED 1874-08-06 18:00:00 TS 43.0000 -61.1000 70 hurdat_atl main 229 171 O_____________ hurdat_atl AL021874 43.0000 -61.1000 HU 70 1 18 23
1874215N25306 1874 11 NA NA NOT_NAMED 1874-08-06 21:00:00 TS 43.7723 -60.5585 main 160 122 P_____________ AL021874 43.7723 -60.5585 HU 70 1 17 30
1874215N25306 1874 11 NA NA NOT_NAMED 1874-08-07 00:00:00 TS 44.5000 -59.9000 70 hurdat_atl main 122 91 O_____________ hurdat_atl AL021874 44.5000 -59.9000 HU 70 1 18 33
1874215N25306 1874 11 NA NA NOT_NAMED 1874-08-07 03:00:00 TS 45.2875 -59.1657 main 89 89 P_____________ AL021874 45.2875 -59.1657 HU 70 1 20 39
1874215N25306 1874 11 NA NA NOT_NAMED 1874-08-07 06:00:00 MX 46.0333 -58.1333 70 hurdat_atl main 132 125 O____________O hurdat_atl AL021874 46.0000 -58.4000 HU 70 1 46.3000 -56.0000 EX 40 17 48
1874215N25306 1874 11 NA NA NOT_NAMED 1874-08-07 09:00:00 MX 46.4611 -57.3157 main 113 56 P____________P AL021874 46.5595 -57.6831 HU 65 1 46.1500 -55.8997 EX 40 12 59
1874215N25306 1874 11 NA NA NOT_NAMED 1874-08-07 12:00:00 MX 46.6667 -56.6000 60 hurdat_atl main 56 15 O____________O hurdat_atl AL021874 47.0000 -57.0000 TS 60 0 46.0000 -55.8000 EX 40 10 51
1874215N25306 1874 11 NA NA NOT_NAMED 1874-08-07 15:00:00 MX 47.1214 -56.1482 main 13 0 P____________P AL021874 47.3682 -56.3442 TS 60 0 46.8501 -55.7508 EX 40 12 31
1874215N25306 1874 11 NA NA NOT_NAMED 1874-08-07 18:00:00 MX 47.7000 -55.7000 60 hurdat_atl main 0 O____________O hurdat_atl AL021874 47.7000 -55.7000 TS 60 0 47.7000 -55.7000 EX 40 13 28

IBTrACS Databaseについて

本データベースは、米国NOAAが公開する1842年以降の世界の熱帯低気圧のベストトラックデータアーカイブInternational Best Track Archive for Climate Stewardship (IBTrACS)を、ウェブで閲覧しやすい形式に変換したものです。

最終更新日:2021-12-01